sensor_id;sensor_type;location;lat;lon;timestamp;temperature;humidity
52267;DHT22;38223;50.940;4.034;2023-06-04T00:02:08;16.80;74.80
52267;DHT22;38223;50.940;4.034;2023-06-04T00:04:41;16.60;75.10
52267;DHT22;38223;50.940;4.034;2023-06-04T00:07:13;16.70;75.40
52267;DHT22;38223;50.940;4.034;2023-06-04T00:09:48;16.60;75.60
52267;DHT22;38223;50.940;4.034;2023-06-04T00:12:20;16.50;75.90
52267;DHT22;38223;50.940;4.034;2023-06-04T00:14:55;16.40;76.50
52267;DHT22;38223;50.940;4.034;2023-06-04T00:17:26;16.40;76.90
52267;DHT22;38223;50.940;4.034;2023-06-04T00:19:59;16.20;77.30
52267;DHT22;38223;50.940;4.034;2023-06-04T00:22:33;16.30;77.40
52267;DHT22;38223;50.940;4.034;2023-06-04T00:25:05;16.30;77.40
52267;DHT22;38223;50.940;4.034;2023-06-04T00:27:38;16.30;78.10
52267;DHT22;38223;50.940;4.034;2023-06-04T00:30:15;16.20;78.60
52267;DHT22;38223;50.940;4.034;2023-06-04T00:35:33;16.00;80.20
52267;DHT22;38223;50.940;4.034;2023-06-04T00:38:07;16.10;80.40
52267;DHT22;38223;50.940;4.034;2023-06-04T00:40:39;16.00;81.30
52267;DHT22;38223;50.940;4.034;2023-06-04T00:43:12;15.90;82.20
52267;DHT22;38223;50.940;4.034;2023-06-04T00:45:47;15.80;82.70
52267;DHT22;38223;50.940;4.034;2023-06-04T00:48:21;15.90;83.20
52267;DHT22;38223;50.940;4.034;2023-06-04T00:50:57;15.90;84.00
52267;DHT22;38223;50.940;4.034;2023-06-04T00:53:26;15.70;85.00
52267;DHT22;38223;50.940;4.034;2023-06-04T00:56:01;15.70;86.00
52267;DHT22;38223;50.940;4.034;2023-06-04T00:58:37;15.60;86.70
52267;DHT22;38223;50.940;4.034;2023-06-04T01:01:09;15.50;87.30
52267;DHT22;38223;50.940;4.034;2023-06-04T01:03:40;15.60;88.00
52267;DHT22;38223;50.940;4.034;2023-06-04T01:06:20;15.70;88.50
52267;DHT22;38223;50.940;4.034;2023-06-04T01:08:50;15.60;89.00
52267;DHT22;38223;50.940;4.034;2023-06-04T01:11:19;15.70;89.30
52267;DHT22;38223;50.940;4.034;2023-06-04T01:13:57;15.90;89.10
52267;DHT22;38223;50.940;4.034;2023-06-04T01:16:31;15.80;90.00
52267;DHT22;38223;50.940;4.034;2023-06-04T01:19:09;15.70;90.40
52267;DHT22;38223;50.940;4.034;2023-06-04T01:21:39;15.60;90.90
52267;DHT22;38223;50.940;4.034;2023-06-04T01:24:14;15.50;91.40
52267;DHT22;38223;50.940;4.034;2023-06-04T01:26:44;15.50;91.90
52267;DHT22;38223;50.940;4.034;2023-06-04T01:29:15;15.50;92.00
52267;DHT22;38223;50.940;4.034;2023-06-04T01:31:50;15.40;92.60
52267;DHT22;38223;50.940;4.034;2023-06-04T01:34:19;15.40;93.10
52267;DHT22;38223;50.940;4.034;2023-06-04T01:36:49;15.30;93.50
52267;DHT22;38223;50.940;4.034;2023-06-04T01:39:19;15.30;93.90
52267;DHT22;38223;50.940;4.034;2023-06-04T01:41:57;15.20;94.50
52267;DHT22;38223;50.940;4.034;2023-06-04T01:44:31;15.20;95.00
52267;DHT22;38223;50.940;4.034;2023-06-04T01:47:00;15.10;95.70
52267;DHT22;38223;50.940;4.034;2023-06-04T01:49:28;15.10;96.30
52267;DHT22;38223;50.940;4.034;2023-06-04T01:52:02;15.10;96.70
52267;DHT22;38223;50.940;4.034;2023-06-04T01:54:30;15.00;97.50
52267;DHT22;38223;50.940;4.034;2023-06-04T01:57:03;15.00;98.10
52267;DHT22;38223;50.940;4.034;2023-06-04T01:59:36;14.80;99.00
52267;DHT22;38223;50.940;4.034;2023-06-04T02:02:10;14.80;99.90
52267;DHT22;38223;50.940;4.034;2023-06-04T02:04:41;14.70;99.90
52267;DHT22;38223;50.940;4.034;2023-06-04T02:07:14;14.70;99.90
52267;DHT22;38223;50.940;4.034;2023-06-04T02:09:52;14.80;99.90
52267;DHT22;38223;50.940;4.034;2023-06-04T02:12:26;14.70;99.90
52267;DHT22;38223;50.940;4.034;2023-06-04T02:15:02;14.70;99.90
52267;DHT22;38223;50.940;4.034;2023-06-04T02:17:30;14.70;99.90
52267;DHT22;38223;50.940;4.034;2023-06-04T02:20:01;14.80;99.90
52267;DHT22;38223;50.940;4.034;2023-06-04T02:22:32;14.70;99.90
52267;DHT22;38223;50.940;4.034;2023-06-04T02:25:07;14.70;99.90
52267;DHT22;38223;50.940;4.034;2023-06-04T02:27:43;14.70;99.90
52267;DHT22;38223;50.940;4.034;2023-06-04T02:30:16;14.70;99.90
52267;DHT22;38223;50.940;4.034;2023-06-04T02:32:46;14.70;99.90
52267;DHT22;38223;50.940;4.034;2023-06-04T02:35:22;14.80;99.90
52267;DHT22;38223;50.940;4.034;2023-06-04T02:38:07;14.80;99.90
52267;DHT22;38223;50.940;4.034;2023-06-04T02:40:42;14.90;99.90
52267;DHT22;38223;50.940;4.034;2023-06-04T02:43:14;15.00;99.90
52267;DHT22;38223;50.940;4.034;2023-06-04T02:45:49;15.10;99.90
52267;DHT22;38223;50.940;4.034;2023-06-04T02:48:22;15.10;99.90
52267;DHT22;38223;50.940;4.034;2023-06-04T02:50:51;15.00;99.90
52267;DHT22;38223;50.940;4.034;2023-06-04T02:53:23;15.10;99.90
52267;DHT22;38223;50.940;4.034;2023-06-04T02:55:58;15.30;99.90
52267;DHT22;38223;50.940;4.034;2023-06-04T02:58:32;15.30;99.90
52267;DHT22;38223;50.940;4.034;2023-06-04T03:01:07;15.30;99.90
52267;DHT22;38223;50.940;4.034;2023-06-04T03:03:38;15.20;99.90
52267;DHT22;38223;50.940;4.034;2023-06-04T03:06:15;15.20;99.90
52267;DHT22;38223;50.940;4.034;2023-06-04T03:08:44;15.00;99.90
52267;DHT22;38223;50.940;4.034;2023-06-04T03:11:17;14.90;99.90
52267;DHT22;38223;50.940;4.034;2023-06-04T03:13:51;14.80;99.90
52267;DHT22;38223;50.940;4.034;2023-06-04T03:16:24;14.70;99.90
52267;DHT22;38223;50.940;4.034;2023-06-04T03:18:55;14.60;99.90
52267;DHT22;38223;50.940;4.034;2023-06-04T03:21:29;14.50;99.90
52267;DHT22;38223;50.940;4.034;2023-06-04T03:24:01;14.50;99.90
52267;DHT22;38223;50.940;4.034;2023-06-04T03:26:34;14.60;99.90
52267;DHT22;38223;50.940;4.034;2023-06-04T03:29:20;14.60;99.90
52267;DHT22;38223;50.940;4.034;2023-06-04T03:31:56;14.60;99.90
52267;DHT22;38223;50.940;4.034;2023-06-04T03:34:23;14.60;99.90
52267;DHT22;38223;50.940;4.034;2023-06-04T03:36:56;14.70;99.90
52267;DHT22;38223;50.940;4.034;2023-06-04T03:39:34;14.60;99.90
52267;DHT22;38223;50.940;4.034;2023-06-04T03:42:10;14.70;99.90
52267;DHT22;38223;50.940;4.034;2023-06-04T03:44:39;14.70;99.90
52267;DHT22;38223;50.940;4.034;2023-06-04T03:47:11;14.60;99.90
52267;DHT22;38223;50.940;4.034;2023-06-04T03:49:40;14.50;99.90
52267;DHT22;38223;50.940;4.034;2023-06-04T03:52:15;14.40;99.90
52267;DHT22;38223;50.940;4.034;2023-06-04T03:54:47;14.30;99.90
52267;DHT22;38223;50.940;4.034;2023-06-04T03:57:23;14.20;99.90
52267;DHT22;38223;50.940;4.034;2023-06-04T03:59:54;14.20;99.90
52267;DHT22;38223;50.940;4.034;2023-06-04T04:02:32;14.30;99.90
52267;DHT22;38223;50.940;4.034;2023-06-04T04:05:04;14.30;99.90
52267;DHT22;38223;50.940;4.034;2023-06-04T04:07:35;14.40;99.90
52267;DHT22;38223;50.940;4.034;2023-06-04T04:10:12;14.30;99.90
52267;DHT22;38223;50.940;4.034;2023-06-04T04:12:44;14.20;99.90
52267;DHT22;38223;50.940;4.034;2023-06-04T04:15:16;14.20;99.90
52267;DHT22;38223;50.940;4.034;2023-06-04T04:17:46;14.20;99.90
52267;DHT22;38223;50.940;4.034;2023-06-04T04:20:18;14.20;99.90
52267;DHT22;38223;50.940;4.034;2023-06-04T04:22:47;14.20;99.90
52267;DHT22;38223;50.940;4.034;2023-06-04T04:25:23;14.20;99.90
52267;DHT22;38223;50.940;4.034;2023-06-04T04:27:56;14.20;99.90
52267;DHT22;38223;50.940;4.034;2023-06-04T04:30:31;14.20;99.90
52267;DHT22;38223;50.940;4.034;2023-06-04T04:33:01;14.20;99.90
52267;DHT22;38223;50.940;4.034;2023-06-04T04:35:33;14.30;99.90
52267;DHT22;38223;50.940;4.034;2023-06-04T04:38:06;14.40;99.90
52267;DHT22;38223;50.940;4.034;2023-06-04T04:40:36;14.40;99.90
52267;DHT22;38223;50.940;4.034;2023-06-04T04:43:08;14.50;99.90
52267;DHT22;38223;50.940;4.034;2023-06-04T04:45:44;14.50;99.90
52267;DHT22;38223;50.940;4.034;2023-06-04T04:48:14;14.50;99.90
52267;DHT22;38223;50.940;4.034;2023-06-04T04:50:49;14.50;99.90
52267;DHT22;38223;50.940;4.034;2023-06-04T04:53:18;14.30;99.90
52267;DHT22;38223;50.940;4.034;2023-06-04T04:55:52;14.40;99.90
52267;DHT22;38223;50.940;4.034;2023-06-04T04:58:22;14.40;99.90
52267;DHT22;38223;50.940;4.034;2023-06-04T05:00:54;14.40;99.90
52267;DHT22;38223;50.940;4.034;2023-06-04T05:03:27;14.50;99.90
52267;DHT22;38223;50.940;4.034;2023-06-04T05:06:03;14.60;99.90
52267;DHT22;38223;50.940;4.034;2023-06-04T05:08:36;14.60;99.90
52267;DHT22;38223;50.940;4.034;2023-06-04T05:11:08;14.50;99.90
52267;DHT22;38223;50.940;4.034;2023-06-04T05:13:37;14.30;99.90
52267;DHT22;38223;50.940;4.034;2023-06-04T05:16:08;14.40;99.90
52267;DHT22;38223;50.940;4.034;2023-06-04T05:18:43;14.40;99.90
52267;DHT22;38223;50.940;4.034;2023-06-04T05:21:12;14.20;99.90
52267;DHT22;38223;50.940;4.034;2023-06-04T05:23:48;14.20;99.90
52267;DHT22;38223;50.940;4.034;2023-06-04T05:26:21;14.20;99.90
52267;DHT22;38223;50.940;4.034;2023-06-04T05:29:00;14.20;99.90
52267;DHT22;38223;50.940;4.034;2023-06-04T05:31:34;14.20;99.90
52267;DHT22;38223;50.940;4.034;2023-06-04T05:34:13;14.20;99.90
52267;DHT22;38223;50.940;4.034;2023-06-04T05:36:46;14.20;99.90
52267;DHT22;38223;50.940;4.034;2023-06-04T05:39:26;14.20;99.90
52267;DHT22;38223;50.940;4.034;2023-06-04T05:42:04;14.30;99.90
52267;DHT22;38223;50.940;4.034;2023-06-04T05:44:46;14.30;99.90
52267;DHT22;38223;50.940;4.034;2023-06-04T05:47:19;14.30;99.90
52267;DHT22;38223;50.940;4.034;2023-06-04T05:50:02;14.40;99.90
52267;DHT22;38223;50.940;4.034;2023-06-04T05:52:36;14.30;99.90
52267;DHT22;38223;50.940;4.034;2023-06-04T05:55:07;14.30;99.90
52267;DHT22;38223;50.940;4.034;2023-06-04T05:57:49;14.50;99.90
52267;DHT22;38223;50.940;4.034;2023-06-04T06:00:31;14.50;99.90
52267;DHT22;38223;50.940;4.034;2023-06-04T06:03:02;14.60;99.90
52267;DHT22;38223;50.940;4.034;2023-06-04T06:05:46;14.70;99.90
52267;DHT22;38223;50.940;4.034;2023-06-04T06:08:25;14.70;99.90
52267;DHT22;38223;50.940;4.034;2023-06-04T06:11:01;14.80;99.90
52267;DHT22;38223;50.940;4.034;2023-06-04T06:13:39;14.80;99.90
52267;DHT22;38223;50.940;4.034;2023-06-04T06:16:13;14.80;99.90
52267;DHT22;38223;50.940;4.034;2023-06-04T06:18:54;14.90;99.90
52267;DHT22;38223;50.940;4.034;2023-06-04T06:21:26;14.90;99.90
52267;DHT22;38223;50.940;4.034;2023-06-04T06:24:04;15.00;99.90
52267;DHT22;38223;50.940;4.034;2023-06-04T06:26:41;15.00;99.90
52267;DHT22;38223;50.940;4.034;2023-06-04T06:29:16;15.10;99.90
52267;DHT22;38223;50.940;4.034;2023-06-04T06:31:54;15.20;99.90
52267;DHT22;38223;50.940;4.034;2023-06-04T06:34:39;15.30;99.90
52267;DHT22;38223;50.940;4.034;2023-06-04T06:37:13;15.20;99.90
52267;DHT22;38223;50.940;4.034;2023-06-04T06:39:50;15.30;99.90
52267;DHT22;38223;50.940;4.034;2023-06-04T06:42:32;15.30;99.90
52267;DHT22;38223;50.940;4.034;2023-06-04T06:45:17;15.40;99.90
52267;DHT22;38223;50.940;4.034;2023-06-04T06:47:46;15.40;99.90
52267;DHT22;38223;50.940;4.034;2023-06-04T06:50:27;15.50;99.90
52267;DHT22;38223;50.940;4.034;2023-06-04T06:52:58;15.60;99.90
52267;DHT22;38223;50.940;4.034;2023-06-04T06:55:29;15.70;99.90
52267;DHT22;38223;50.940;4.034;2023-06-04T06:58:04;15.80;99.90
52267;DHT22;38223;50.940;4.034;2023-06-04T07:00:40;15.80;99.90
52267;DHT22;38223;50.940;4.034;2023-06-04T07:03:36;15.90;99.90
52267;DHT22;38223;50.940;4.034;2023-06-04T07:06:10;16.00;99.90
52267;DHT22;38223;50.940;4.034;2023-06-04T07:08:56;16.10;99.90
52267;DHT22;38223;50.940;4.034;2023-06-04T07:11:41;16.20;99.90
52267;DHT22;38223;50.940;4.034;2023-06-04T07:14:22;16.20;99.90
52267;DHT22;38223;50.940;4.034;2023-06-04T07:16:54;16.30;99.90
52267;DHT22;38223;50.940;4.034;2023-06-04T07:19:37;16.40;99.90
52267;DHT22;38223;50.940;4.034;2023-06-04T07:22:16;16.50;99.90
52267;DHT22;38223;50.940;4.034;2023-06-04T07:24:53;16.60;99.90
52267;DHT22;38223;50.940;4.034;2023-06-04T07:27:30;16.60;99.90
52267;DHT22;38223;50.940;4.034;2023-06-04T07:30:06;16.60;99.90
52267;DHT22;38223;50.940;4.034;2023-06-04T07:32:47;16.60;99.90
52267;DHT22;38223;50.940;4.034;2023-06-04T07:35:20;16.70;99.90
52267;DHT22;38223;50.940;4.034;2023-06-04T07:37:57;16.80;99.90
52267;DHT22;38223;50.940;4.034;2023-06-04T07:40:32;16.90;99.90
52267;DHT22;38223;50.940;4.034;2023-06-04T07:43:06;17.00;99.90
52267;DHT22;38223;50.940;4.034;2023-06-04T07:45:52;17.10;99.90
52267;DHT22;38223;50.940;4.034;2023-06-04T07:48:25;17.20;99.60
52267;DHT22;38223;50.940;4.034;2023-06-04T07:51:15;17.20;99.20
52267;DHT22;38223;50.940;4.034;2023-06-04T07:53:50;17.20;99.20
52267;DHT22;38223;50.940;4.034;2023-06-04T07:56:25;17.30;99.00
52267;DHT22;38223;50.940;4.034;2023-06-04T07:59:00;17.30;98.70
52267;DHT22;38223;50.940;4.034;2023-06-04T08:01:32;17.30;98.80
52267;DHT22;38223;50.940;4.034;2023-06-04T08:04:06;17.40;98.30
52267;DHT22;38223;50.940;4.034;2023-06-04T08:06:39;17.40;97.50
52267;DHT22;38223;50.940;4.034;2023-06-04T08:09:16;17.40;97.20
52267;DHT22;38223;50.940;4.034;2023-06-04T08:11:45;17.50;97.10
52267;DHT22;38223;50.940;4.034;2023-06-04T08:14:18;17.60;97.20
52267;DHT22;38223;50.940;4.034;2023-06-04T08:16:51;17.70;97.20
52267;DHT22;38223;50.940;4.034;2023-06-04T08:19:27;17.90;97.10
52267;DHT22;38223;50.940;4.034;2023-06-04T08:22:04;17.90;96.90
52267;DHT22;38223;50.940;4.034;2023-06-04T08:24:36;18.10;96.20
52267;DHT22;38223;50.940;4.034;2023-06-04T08:27:09;18.30;94.60
52267;DHT22;38223;50.940;4.034;2023-06-04T08:29:37;18.20;93.30
52267;DHT22;38223;50.940;4.034;2023-06-04T08:32:11;18.30;93.30
52267;DHT22;38223;50.940;4.034;2023-06-04T08:34:42;18.40;93.70
52267;DHT22;38223;50.940;4.034;2023-06-04T08:37:23;18.60;92.20
52267;DHT22;38223;50.940;4.034;2023-06-04T08:39:58;18.60;91.90
52267;DHT22;38223;50.940;4.034;2023-06-04T08:42:31;18.60;91.90
52267;DHT22;38223;50.940;4.034;2023-06-04T08:45:04;18.70;91.60
52267;DHT22;38223;50.940;4.034;2023-06-04T08:47:42;18.70;91.80
52267;DHT22;38223;50.940;4.034;2023-06-04T08:50:17;18.70;91.60
52267;DHT22;38223;50.940;4.034;2023-06-04T08:52:49;18.90;91.20
52267;DHT22;38223;50.940;4.034;2023-06-04T08:55:23;19.00;90.50
52267;DHT22;38223;50.940;4.034;2023-06-04T08:57:54;19.00;90.40
52267;DHT22;38223;50.940;4.034;2023-06-04T09:00:29;19.00;90.00
52267;DHT22;38223;50.940;4.034;2023-06-04T09:03:07;19.00;89.30
52267;DHT22;38223;50.940;4.034;2023-06-04T09:05:42;19.20;87.20
52267;DHT22;38223;50.940;4.034;2023-06-04T09:08:15;19.30;86.10
52267;DHT22;38223;50.940;4.034;2023-06-04T09:10:50;19.40;84.50
52267;DHT22;38223;50.940;4.034;2023-06-04T09:13:30;19.40;82.60
52267;DHT22;38223;50.940;4.034;2023-06-04T09:16:09;19.30;82.80
52267;DHT22;38223;50.940;4.034;2023-06-04T09:18:37;19.40;82.90
52267;DHT22;38223;50.940;4.034;2023-06-04T09:21:13;19.50;81.60
52267;DHT22;38223;50.940;4.034;2023-06-04T09:23:50;19.50;81.20
52267;DHT22;38223;50.940;4.034;2023-06-04T09:26:23;19.60;81.20
52267;DHT22;38223;50.940;4.034;2023-06-04T09:28:55;19.50;82.20
52267;DHT22;38223;50.940;4.034;2023-06-04T09:31:37;19.70;82.60
52267;DHT22;38223;50.940;4.034;2023-06-04T09:34:08;19.90;81.60
52267;DHT22;38223;50.940;4.034;2023-06-04T09:36:41;19.90;79.40
52267;DHT22;38223;50.940;4.034;2023-06-04T09:39:18;20.00;78.40
52267;DHT22;38223;50.940;4.034;2023-06-04T09:41:57;20.00;77.30
52267;DHT22;38223;50.940;4.034;2023-06-04T09:44:22;20.00;77.70
52267;DHT22;38223;50.940;4.034;2023-06-04T09:46:57;20.10;77.10
52267;DHT22;38223;50.940;4.034;2023-06-04T09:49:39;20.00;77.50
52267;DHT22;38223;50.940;4.034;2023-06-04T09:52:04;20.00;77.80
52267;DHT22;38223;50.940;4.034;2023-06-04T09:54:39;20.00;77.70
52267;DHT22;38223;50.940;4.034;2023-06-04T09:57:19;20.00;77.60
52267;DHT22;38223;50.940;4.034;2023-06-04T09:59:52;20.20;77.00
52267;DHT22;38223;50.940;4.034;2023-06-04T10:02:26;20.20;75.30
52267;DHT22;38223;50.940;4.034;2023-06-04T10:05:01;20.20;75.30
52267;DHT22;38223;50.940;4.034;2023-06-04T10:07:31;20.20;75.40
52267;DHT22;38223;50.940;4.034;2023-06-04T10:10:05;20.20;75.00
52267;DHT22;38223;50.940;4.034;2023-06-04T10:12:42;20.40;75.00
52267;DHT22;38223;50.940;4.034;2023-06-04T10:15:16;20.60;73.20
52267;DHT22;38223;50.940;4.034;2023-06-04T10:17:44;20.50;71.10
52267;DHT22;38223;50.940;4.034;2023-06-04T10:20:22;20.60;71.60
52267;DHT22;38223;50.940;4.034;2023-06-04T10:22:53;20.50;70.60
52267;DHT22;38223;50.940;4.034;2023-06-04T10:25:30;20.60;70.40
52267;DHT22;38223;50.940;4.034;2023-06-04T10:28:05;20.50;70.70
52267;DHT22;38223;50.940;4.034;2023-06-04T10:30:41;20.50;71.40
52267;DHT22;38223;50.940;4.034;2023-06-04T10:33:12;20.80;70.60
52267;DHT22;38223;50.940;4.034;2023-06-04T10:35:43;20.80;70.80
52267;DHT22;38223;50.940;4.034;2023-06-04T10:38:16;21.00;71.10
52267;DHT22;38223;50.940;4.034;2023-06-04T10:40:46;21.00;69.40
52267;DHT22;38223;50.940;4.034;2023-06-04T10:43:17;20.90;68.90
52267;DHT22;38223;50.940;4.034;2023-06-04T10:45:51;20.90;69.10
52267;DHT22;38223;50.940;4.034;2023-06-04T10:48:44;21.00;68.50
52267;DHT22;38223;50.940;4.034;2023-06-04T10:51:09;21.00;68.50
52267;DHT22;38223;50.940;4.034;2023-06-04T10:53:42;21.00;68.70
52267;DHT22;38223;50.940;4.034;2023-06-04T10:56:12;21.10;68.00
52267;DHT22;38223;50.940;4.034;2023-06-04T10:58:45;21.10;67.50
52267;DHT22;38223;50.940;4.034;2023-06-04T11:01:22;21.10;67.40
52267;DHT22;38223;50.940;4.034;2023-06-04T11:03:49;21.10;67.60
52267;DHT22;38223;50.940;4.034;2023-06-04T11:06:19;21.10;67.90
52267;DHT22;38223;50.940;4.034;2023-06-04T11:08:48;21.20;67.60
52267;DHT22;38223;50.940;4.034;2023-06-04T11:11:20;21.30;66.40
52267;DHT22;38223;50.940;4.034;2023-06-04T11:13:53;21.40;67.10
52267;DHT22;38223;50.940;4.034;2023-06-04T11:16:22;21.40;65.30
52267;DHT22;38223;50.940;4.034;2023-06-04T11:19:01;21.50;65.60
52267;DHT22;38223;50.940;4.034;2023-06-04T11:21:33;21.70;64.90
52267;DHT22;38223;50.940;4.034;2023-06-04T11:24:03;21.80;64.30
52267;DHT22;38223;50.940;4.034;2023-06-04T11:26:36;21.80;63.70
52267;DHT22;38223;50.940;4.034;2023-06-04T11:29:12;21.70;63.50
52267;DHT22;38223;50.940;4.034;2023-06-04T11:31:46;21.70;63.60
52267;DHT22;38223;50.940;4.034;2023-06-04T11:34:27;21.80;64.10
52267;DHT22;38223;50.940;4.034;2023-06-04T11:37:08;21.90;63.70
52267;DHT22;38223;50.940;4.034;2023-06-04T11:39:37;21.80;60.60
52267;DHT22;38223;50.940;4.034;2023-06-04T11:42:09;21.80;60.10
52267;DHT22;38223;50.940;4.034;2023-06-04T11:44:42;21.90;60.70
52267;DHT22;38223;50.940;4.034;2023-06-04T11:47:16;21.90;60.70
52267;DHT22;38223;50.940;4.034;2023-06-04T11:49:52;22.10;61.00
52267;DHT22;38223;50.940;4.034;2023-06-04T11:52:21;22.00;61.90
52267;DHT22;38223;50.940;4.034;2023-06-04T11:54:55;21.90;62.00
52267;DHT22;38223;50.940;4.034;2023-06-04T11:57:26;22.00;61.70
52267;DHT22;38223;50.940;4.034;2023-06-04T11:59:58;22.00;59.80
52267;DHT22;38223;50.940;4.034;2023-06-04T12:02:33;22.20;59.40
52267;DHT22;38223;50.940;4.034;2023-06-04T12:05:12;22.40;59.40
52267;DHT22;38223;50.940;4.034;2023-06-04T12:07:46;22.30;59.30
52267;DHT22;38223;50.940;4.034;2023-06-04T12:10:21;22.30;59.40
52267;DHT22;38223;50.940;4.034;2023-06-04T12:12:56;22.40;58.90
52267;DHT22;38223;50.940;4.034;2023-06-04T12:15:32;22.30;59.00
52267;DHT22;38223;50.940;4.034;2023-06-04T12:18:02;22.40;58.70
52267;DHT22;38223;50.940;4.034;2023-06-04T12:20:39;22.30;58.20
52267;DHT22;38223;50.940;4.034;2023-06-04T12:23:19;22.30;58.10
52267;DHT22;38223;50.940;4.034;2023-06-04T12:25:43;22.40;58.50
52267;DHT22;38223;50.940;4.034;2023-06-04T12:28:20;22.40;58.60
52267;DHT22;38223;50.940;4.034;2023-06-04T12:30:50;22.40;58.40
52267;DHT22;38223;50.940;4.034;2023-06-04T12:33:21;22.50;57.60
52267;DHT22;38223;50.940;4.034;2023-06-04T12:35:54;22.50;57.40
52267;DHT22;38223;50.940;4.034;2023-06-04T12:38:23;22.60;56.40
52267;DHT22;38223;50.940;4.034;2023-06-04T12:40:55;22.70;56.20
52267;DHT22;38223;50.940;4.034;2023-06-04T12:43:27;22.90;56.90
52267;DHT22;38223;50.940;4.034;2023-06-04T12:46:03;22.80;57.30
52267;DHT22;38223;50.940;4.034;2023-06-04T12:48:34;22.70;57.30
52267;DHT22;38223;50.940;4.034;2023-06-04T12:51:07;22.70;57.30
52267;DHT22;38223;50.940;4.034;2023-06-04T12:53:41;22.70;57.30
52267;DHT22;38223;50.940;4.034;2023-06-04T12:56:11;22.90;57.40
52267;DHT22;38223;50.940;4.034;2023-06-04T12:58:49;23.10;57.00
52267;DHT22;38223;50.940;4.034;2023-06-04T13:01:28;23.10;55.60
52267;DHT22;38223;50.940;4.034;2023-06-04T13:04:09;22.90;55.10
52267;DHT22;38223;50.940;4.034;2023-06-04T13:06:46;22.80;54.90
52267;DHT22;38223;50.940;4.034;2023-06-04T13:09:23;22.80;55.10
52267;DHT22;38223;50.940;4.034;2023-06-04T13:11:54;22.90;55.10
52267;DHT22;38223;50.940;4.034;2023-06-04T13:14:29;22.80;54.60
52267;DHT22;38223;50.940;4.034;2023-06-04T13:17:02;23.00;54.90
52267;DHT22;38223;50.940;4.034;2023-06-04T13:19:36;22.90;55.10
52267;DHT22;38223;50.940;4.034;2023-06-04T13:22:14;22.80;55.30
52267;DHT22;38223;50.940;4.034;2023-06-04T13:24:46;22.90;55.80
52267;DHT22;38223;50.940;4.034;2023-06-04T13:27:19;22.90;55.80
52267;DHT22;38223;50.940;4.034;2023-06-04T13:32:49;23.10;55.60
52267;DHT22;38223;50.940;4.034;2023-06-04T13:35:23;23.20;55.60
52267;DHT22;38223;50.940;4.034;2023-06-04T13:38:06;23.30;55.10
52267;DHT22;38223;50.940;4.034;2023-06-04T13:40:43;23.20;54.90
52267;DHT22;38223;50.940;4.034;2023-06-04T13:43:17;23.30;54.80
52267;DHT22;38223;50.940;4.034;2023-06-04T13:45:54;23.40;54.80
52267;DHT22;38223;50.940;4.034;2023-06-04T13:48:29;23.40;54.30
52267;DHT22;38223;50.940;4.034;2023-06-04T13:51:00;23.30;54.90
52267;DHT22;38223;50.940;4.034;2023-06-04T13:53:35;23.40;55.10
52267;DHT22;38223;50.940;4.034;2023-06-04T13:56:07;23.30;54.90
52267;DHT22;38223;50.940;4.034;2023-06-04T13:58:49;23.40;54.50
52267;DHT22;38223;50.940;4.034;2023-06-04T14:01:18;23.40;54.80
52267;DHT22;38223;50.940;4.034;2023-06-04T14:04:01;23.30;55.30
52267;DHT22;38223;50.940;4.034;2023-06-04T14:06:34;23.40;55.30
52267;DHT22;38223;50.940;4.034;2023-06-04T14:09:04;23.80;55.10
52267;DHT22;38223;50.940;4.034;2023-06-04T14:11:39;23.90;54.80
52267;DHT22;38223;50.940;4.034;2023-06-04T14:14:12;23.70;54.20
52267;DHT22;38223;50.940;4.034;2023-06-04T14:16:49;23.60;54.20
52267;DHT22;38223;50.940;4.034;2023-06-04T14:19:24;23.70;54.10
52267;DHT22;38223;50.940;4.034;2023-06-04T14:21:56;23.70;54.10
52267;DHT22;38223;50.940;4.034;2023-06-04T14:24:26;23.70;53.90
52267;DHT22;38223;50.940;4.034;2023-06-04T14:27:06;23.60;54.10
52267;DHT22;38223;50.940;4.034;2023-06-04T14:29:36;23.70;54.40
52267;DHT22;38223;50.940;4.034;2023-06-04T14:32:09;23.70;54.70
52267;DHT22;38223;50.940;4.034;2023-06-04T14:34:39;23.80;55.00
52267;DHT22;38223;50.940;4.034;2023-06-04T14:37:11;23.80;54.10
52267;DHT22;38223;50.940;4.034;2023-06-04T14:39:44;23.80;53.70
52267;DHT22;38223;50.940;4.034;2023-06-04T14:42:15;23.80;54.40
52267;DHT22;38223;50.940;4.034;2023-06-04T14:44:43;23.90;54.80
52267;DHT22;38223;50.940;4.034;2023-06-04T14:47:25;24.00;54.50
52267;DHT22;38223;50.940;4.034;2023-06-04T14:50:01;24.00;53.90
52267;DHT22;38223;50.940;4.034;2023-06-04T14:52:49;24.00;54.40
52267;DHT22;38223;50.940;4.034;2023-06-04T14:55:19;24.10;53.80
52267;DHT22;38223;50.940;4.034;2023-06-04T14:57:53;24.20;53.70
52267;DHT22;38223;50.940;4.034;2023-06-04T15:00:28;24.30;53.30
52267;DHT22;38223;50.940;4.034;2023-06-04T15:03:06;24.20;53.40
52267;DHT22;38223;50.940;4.034;2023-06-04T15:05:35;24.20;53.50
52267;DHT22;38223;50.940;4.034;2023-06-04T15:08:03;24.10;53.00
52267;DHT22;38223;50.940;4.034;2023-06-04T15:10:33;24.10;53.60
52267;DHT22;38223;50.940;4.034;2023-06-04T15:13:02;24.30;53.80
52267;DHT22;38223;50.940;4.034;2023-06-04T15:15:30;24.30;53.90
52267;DHT22;38223;50.940;4.034;2023-06-04T15:17:57;24.30;53.90
52267;DHT22;38223;50.940;4.034;2023-06-04T15:20:25;24.20;53.60
52267;DHT22;38223;50.940;4.034;2023-06-04T15:23:00;24.10;53.90
52267;DHT22;38223;50.940;4.034;2023-06-04T15:25:33;24.00;54.00
52267;DHT22;38223;50.940;4.034;2023-06-04T15:28:13;24.00;53.60
52267;DHT22;38223;50.940;4.034;2023-06-04T15:30:44;24.10;53.40
52267;DHT22;38223;50.940;4.034;2023-06-04T15:33:16;24.10;53.30
52267;DHT22;38223;50.940;4.034;2023-06-04T15:35:56;24.00;53.30
52267;DHT22;38223;50.940;4.034;2023-06-04T15:38:47;23.90;53.50
52267;DHT22;38223;50.940;4.034;2023-06-04T15:41:16;23.90;53.80
52267;DHT22;38223;50.940;4.034;2023-06-04T15:43:51;24.00;54.10
52267;DHT22;38223;50.940;4.034;2023-06-04T15:46:36;24.00;54.20
52267;DHT22;38223;50.940;4.034;2023-06-04T15:49:09;23.90;54.50
52267;DHT22;38223;50.940;4.034;2023-06-04T15:51:40;24.00;54.70
52267;DHT22;38223;50.940;4.034;2023-06-04T15:54:09;24.00;54.70
52267;DHT22;38223;50.940;4.034;2023-06-04T15:56:45;23.90;54.00
52267;DHT22;38223;50.940;4.034;2023-06-04T15:59:18;23.90;53.60
52267;DHT22;38223;50.940;4.034;2023-06-04T16:01:51;23.90;53.40
52267;DHT22;38223;50.940;4.034;2023-06-04T16:04:38;23.80;53.60
52267;DHT22;38223;50.940;4.034;2023-06-04T16:07:06;23.90;54.10
52267;DHT22;38223;50.940;4.034;2023-06-04T16:09:38;23.90;54.10
52267;DHT22;38223;50.940;4.034;2023-06-04T16:12:25;23.80;54.10
52267;DHT22;38223;50.940;4.034;2023-06-04T16:15:02;23.70;54.10
52267;DHT22;38223;50.940;4.034;2023-06-04T16:17:37;23.90;54.40
52267;DHT22;38223;50.940;4.034;2023-06-04T16:20:14;23.90;54.50